BFI weather

Boeing Field King County International Airport
Seattle, Washington, United States

Public forecast

Using degrees Fahrenheit for public forecast. Weather courtesy of forecast.io.

Current aviation weather report (METAR) for Boeing Field King County International Airport

Retrieved 2020/07/12 21:53 UTC (35 minutes ago):

KBFI 122153Z COR 30007KT 10SM SCT040 21/09 A3013 RMK AO2 SLP204 T02110094

Aviation forecast (TAF) for Boeing Field King County International Airport

Retrieved 2020/07/12 18:22 UTC (4 hours ago):

TAF KBFI 121720Z 1218/1318 VRB04KT P6SM VCSH SCT006 BKN015 OVC035 FM122100 32006KT P6SM SCT020 BKN035 FM130000 35006KT P6SM SCT040 FM130600 00000KT P6SM SKC FM131200 00000KT P6SM SCT015 FM131700 32006KT P6SM SKC